sensor_id;sensor_type;location;lat;lon;timestamp;P1;durP1;ratioP1;P2;durP2;ratioP2
5491;SDS011;2768;53.540;10.224;2024-03-17T00:00:16;12.47;;;2.53;;
5491;SDS011;2768;53.540;10.224;2024-03-17T00:06:09;11.53;;;2.67;;
5491;SDS011;2768;53.540;10.224;2024-03-17T00:12:01;13.83;;;2.90;;
5491;SDS011;2768;53.540;10.224;2024-03-17T00:17:55;14.00;;;3.47;;
5491;SDS011;2768;53.540;10.224;2024-03-17T00:23:47;18.53;;;4.47;;
5491;SDS011;2768;53.540;10.224;2024-03-17T00:29:41;15.23;;;4.40;;
5491;SDS011;2768;53.540;10.224;2024-03-17T00:35:34;7.40;;;2.57;;
5491;SDS011;2768;53.540;10.224;2024-03-17T00:41:27;10.40;;;2.83;;
5491;SDS011;2768;53.540;10.224;2024-03-17T00:47:19;13.93;;;3.10;;
5491;SDS011;2768;53.540;10.224;2024-03-17T00:53:13;13.17;;;3.13;;
5491;SDS011;2768;53.540;10.224;2024-03-17T00:59:06;20.27;;;4.13;;
5491;SDS011;2768;53.540;10.224;2024-03-17T01:04:58;14.50;;;2.57;;
5491;SDS011;2768;53.540;10.224;2024-03-17T01:10:52;15.30;;;3.30;;
5491;SDS011;2768;53.540;10.224;2024-03-17T01:16:45;17.00;;;2.80;;
5491;SDS011;2768;53.540;10.224;2024-03-17T01:22:37;12.33;;;3.17;;
5491;SDS011;2768;53.540;10.224;2024-03-17T01:28:31;12.57;;;2.70;;
5491;SDS011;2768;53.540;10.224;2024-03-17T01:34:23;11.60;;;3.30;;
5491;SDS011;2768;53.540;10.224;2024-03-17T01:40:16;8.30;;;2.30;;
5491;SDS011;2768;53.540;10.224;2024-03-17T01:46:11;11.53;;;2.63;;
5491;SDS011;2768;53.540;10.224;2024-03-17T01:52:05;8.77;;;2.50;;
5491;SDS011;2768;53.540;10.224;2024-03-17T01:57:58;11.63;;;2.50;;
5491;SDS011;2768;53.540;10.224;2024-03-17T02:03:52;10.37;;;3.10;;
5491;SDS011;2768;53.540;10.224;2024-03-17T02:09:45;12.40;;;2.90;;
5491;SDS011;2768;53.540;10.224;2024-03-17T02:15:37;10.70;;;2.83;;
5491;SDS011;2768;53.540;10.224;2024-03-17T02:21:31;15.37;;;3.00;;
5491;SDS011;2768;53.540;10.224;2024-03-17T02:27:25;12.03;;;3.17;;
5491;SDS011;2768;53.540;10.224;2024-03-17T02:33:17;12.57;;;2.60;;
5491;SDS011;2768;53.540;10.224;2024-03-17T02:39:10;9.80;;;2.47;;
5491;SDS011;2768;53.540;10.224;2024-03-17T02:45:21;18.63;;;2.80;;
5491;SDS011;2768;53.540;10.224;2024-03-17T02:51:14;14.43;;;3.43;;
5491;SDS011;2768;53.540;10.224;2024-03-17T02:57:08;10.23;;;2.50;;
5491;SDS011;2768;53.540;10.224;2024-03-17T03:03:01;12.23;;;2.47;;
5491;SDS011;2768;53.540;10.224;2024-03-17T03:08:54;10.30;;;2.23;;
5491;SDS011;2768;53.540;10.224;2024-03-17T03:14:46;11.87;;;2.93;;
5491;SDS011;2768;53.540;10.224;2024-03-17T03:20:40;8.90;;;2.10;;
5491;SDS011;2768;53.540;10.224;2024-03-17T03:26:32;12.27;;;2.67;;
5491;SDS011;2768;53.540;10.224;2024-03-17T03:32:25;8.60;;;3.03;;
5491;SDS011;2768;53.540;10.224;2024-03-17T03:38:19;8.10;;;2.33;;
5491;SDS011;2768;53.540;10.224;2024-03-17T03:44:12;14.30;;;2.70;;
5491;SDS011;2768;53.540;10.224;2024-03-17T03:50:06;10.77;;;3.03;;
5491;SDS011;2768;53.540;10.224;2024-03-17T03:56:02;7.23;;;2.90;;
5491;SDS011;2768;53.540;10.224;2024-03-17T04:01:56;10.50;;;2.37;;
5491;SDS011;2768;53.540;10.224;2024-03-17T04:07:49;7.10;;;2.10;;
5491;SDS011;2768;53.540;10.224;2024-03-17T04:13:43;9.80;;;2.50;;
5491;SDS011;2768;53.540;10.224;2024-03-17T04:19:36;10.93;;;2.63;;
5491;SDS011;2768;53.540;10.224;2024-03-17T04:25:28;11.77;;;3.63;;
5491;SDS011;2768;53.540;10.224;2024-03-17T04:31:22;10.63;;;3.90;;
5491;SDS011;2768;53.540;10.224;2024-03-17T04:37:14;9.93;;;2.70;;
5491;SDS011;2768;53.540;10.224;2024-03-17T04:43:07;12.03;;;3.47;;
5491;SDS011;2768;53.540;10.224;2024-03-17T04:49:01;6.13;;;3.00;;
5491;SDS011;2768;53.540;10.224;2024-03-17T04:54:54;7.80;;;2.77;;
5491;SDS011;2768;53.540;10.224;2024-03-17T05:00:46;6.40;;;2.57;;
5491;SDS011;2768;53.540;10.224;2024-03-17T05:06:40;8.10;;;2.43;;
5491;SDS011;2768;53.540;10.224;2024-03-17T05:12:37;7.47;;;3.30;;
5491;SDS011;2768;53.540;10.224;2024-03-17T05:18:29;16.07;;;3.10;;
5491;SDS011;2768;53.540;10.224;2024-03-17T05:24:24;9.90;;;3.20;;
5491;SDS011;2768;53.540;10.224;2024-03-17T05:30:17;11.13;;;4.50;;
5491;SDS011;2768;53.540;10.224;2024-03-17T05:36:09;8.90;;;3.30;;
5491;SDS011;2768;53.540;10.224;2024-03-17T05:42:03;11.93;;;3.87;;
5491;SDS011;2768;53.540;10.224;2024-03-17T05:47:56;12.67;;;3.97;;
5491;SDS011;2768;53.540;10.224;2024-03-17T05:53:48;11.63;;;3.80;;
5491;SDS011;2768;53.540;10.224;2024-03-17T05:59:42;10.47;;;3.60;;
5491;SDS011;2768;53.540;10.224;2024-03-17T06:05:35;13.33;;;4.57;;
5491;SDS011;2768;53.540;10.224;2024-03-17T06:11:28;12.47;;;4.87;;
5491;SDS011;2768;53.540;10.224;2024-03-17T06:17:22;10.70;;;3.77;;
5491;SDS011;2768;53.540;10.224;2024-03-17T06:23:15;11.87;;;3.93;;
5491;SDS011;2768;53.540;10.224;2024-03-17T06:29:07;12.20;;;4.40;;
5491;SDS011;2768;53.540;10.224;2024-03-17T06:35:02;17.60;;;4.80;;
5491;SDS011;2768;53.540;10.224;2024-03-17T06:40:55;16.93;;;5.43;;
5491;SDS011;2768;53.540;10.224;2024-03-17T06:46:47;15.60;;;4.60;;
5491;SDS011;2768;53.540;10.224;2024-03-17T06:52:41;18.47;;;4.40;;
5491;SDS011;2768;53.540;10.224;2024-03-17T06:58:33;12.20;;;4.37;;
5491;SDS011;2768;53.540;10.224;2024-03-17T07:04:25;19.90;;;4.77;;
5491;SDS011;2768;53.540;10.224;2024-03-17T07:10:19;16.03;;;4.50;;
5491;SDS011;2768;53.540;10.224;2024-03-17T07:16:12;11.30;;;4.33;;
5491;SDS011;2768;53.540;10.224;2024-03-17T07:22:04;14.13;;;4.87;;
5491;SDS011;2768;53.540;10.224;2024-03-17T07:27:58;16.93;;;3.70;;
5491;SDS011;2768;53.540;10.224;2024-03-17T07:33:50;17.17;;;4.97;;
5491;SDS011;2768;53.540;10.224;2024-03-17T07:39:43;11.87;;;3.00;;
5491;SDS011;2768;53.540;10.224;2024-03-17T07:45:37;14.67;;;4.03;;
5491;SDS011;2768;53.540;10.224;2024-03-17T07:51:29;11.23;;;3.40;;
5491;SDS011;2768;53.540;10.224;2024-03-17T07:57:21;9.80;;;3.20;;
5491;SDS011;2768;53.540;10.224;2024-03-17T08:03:15;15.30;;;3.47;;
5491;SDS011;2768;53.540;10.224;2024-03-17T08:09:07;8.40;;;2.63;;
5491;SDS011;2768;53.540;10.224;2024-03-17T08:15:00;7.03;;;2.30;;
5491;SDS011;2768;53.540;10.224;2024-03-17T08:20:54;11.00;;;2.67;;
5491;SDS011;2768;53.540;10.224;2024-03-17T08:26:46;9.07;;;2.00;;
5491;SDS011;2768;53.540;10.224;2024-03-17T08:32:38;12.13;;;2.67;;
5491;SDS011;2768;53.540;10.224;2024-03-17T08:38:32;7.60;;;2.67;;
5491;SDS011;2768;53.540;10.224;2024-03-17T08:44:25;6.80;;;1.53;;
5491;SDS011;2768;53.540;10.224;2024-03-17T08:50:18;6.67;;;2.30;;
5491;SDS011;2768;53.540;10.224;2024-03-17T08:56:11;5.63;;;1.83;;
5491;SDS011;2768;53.540;10.224;2024-03-17T09:02:04;13.37;;;2.07;;
5491;SDS011;2768;53.540;10.224;2024-03-17T09:07:57;7.83;;;2.10;;
5491;SDS011;2768;53.540;10.224;2024-03-17T09:13:50;6.07;;;1.57;;
5491;SDS011;2768;53.540;10.224;2024-03-17T09:19:43;4.40;;;1.53;;
5491;SDS011;2768;53.540;10.224;2024-03-17T09:25:35;7.27;;;1.90;;
5491;SDS011;2768;53.540;10.224;2024-03-17T09:31:29;8.70;;;2.33;;
5491;SDS011;2768;53.540;10.224;2024-03-17T09:37:24;9.53;;;2.00;;
5491;SDS011;2768;53.540;10.224;2024-03-17T09:43:16;10.83;;;2.83;;
5491;SDS011;2768;53.540;10.224;2024-03-17T09:49:13;7.43;;;1.97;;
5491;SDS011;2768;53.540;10.224;2024-03-17T09:55:08;6.30;;;1.70;;
5491;SDS011;2768;53.540;10.224;2024-03-17T10:01:04;10.77;;;1.90;;
5491;SDS011;2768;53.540;10.224;2024-03-17T10:06:58;12.87;;;2.23;;
5491;SDS011;2768;53.540;10.224;2024-03-17T10:12:51;9.23;;;2.17;;
5491;SDS011;2768;53.540;10.224;2024-03-17T10:18:44;7.70;;;2.03;;
5491;SDS011;2768;53.540;10.224;2024-03-17T10:24:39;6.70;;;1.53;;
5491;SDS011;2768;53.540;10.224;2024-03-17T10:30:31;7.50;;;1.97;;
5491;SDS011;2768;53.540;10.224;2024-03-17T10:36:23;7.83;;;2.10;;
5491;SDS011;2768;53.540;10.224;2024-03-17T10:42:20;4.83;;;2.20;;
5491;SDS011;2768;53.540;10.224;2024-03-17T10:48:15;7.80;;;2.33;;
5491;SDS011;2768;53.540;10.224;2024-03-17T10:54:11;10.07;;;2.10;;
5491;SDS011;2768;53.540;10.224;2024-03-17T11:00:18;10.93;;;2.10;;
5491;SDS011;2768;53.540;10.224;2024-03-17T11:06:13;6.80;;;1.90;;
5491;SDS011;2768;53.540;10.224;2024-03-17T11:12:10;5.90;;;1.90;;
5491;SDS011;2768;53.540;10.224;2024-03-17T11:18:37;4.30;;;1.70;;
5491;SDS011;2768;53.540;10.224;2024-03-17T11:24:29;7.83;;;1.60;;
5491;SDS011;2768;53.540;10.224;2024-03-17T11:36:37;4.57;;;1.50;;
5491;SDS011;2768;53.540;10.224;2024-03-17T11:42:30;5.20;;;1.83;;
5491;SDS011;2768;53.540;10.224;2024-03-17T11:48:23;5.90;;;1.83;;
5491;SDS011;2768;53.540;10.224;2024-03-17T11:54:17;4.70;;;1.80;;
5491;SDS011;2768;53.540;10.224;2024-03-17T12:00:18;4.20;;;1.40;;
5491;SDS011;2768;53.540;10.224;2024-03-17T12:06:12;4.47;;;1.87;;
5491;SDS011;2768;53.540;10.224;2024-03-17T12:12:08;4.07;;;1.80;;
5491;SDS011;2768;53.540;10.224;2024-03-17T12:18:01;4.10;;;1.70;;
5491;SDS011;2768;53.540;10.224;2024-03-17T12:23:53;4.60;;;1.50;;
5491;SDS011;2768;53.540;10.224;2024-03-17T12:29:47;5.13;;;2.03;;
5491;SDS011;2768;53.540;10.224;2024-03-17T12:35:40;4.27;;;1.37;;
5491;SDS011;2768;53.540;10.224;2024-03-17T12:41:33;4.57;;;1.50;;
5491;SDS011;2768;53.540;10.224;2024-03-17T12:47:27;7.90;;;3.40;;
5491;SDS011;2768;53.540;10.224;2024-03-17T12:53:20;4.63;;;1.43;;
5491;SDS011;2768;53.540;10.224;2024-03-17T12:59:13;5.60;;;1.60;;
5491;SDS011;2768;53.540;10.224;2024-03-17T13:05:23;4.07;;;2.07;;
5491;SDS011;2768;53.540;10.224;2024-03-17T13:11:16;3.87;;;1.33;;
5491;SDS011;2768;53.540;10.224;2024-03-17T13:17:08;3.83;;;1.13;;
5491;SDS011;2768;53.540;10.224;2024-03-17T13:23:09;4.80;;;1.77;;
5491;SDS011;2768;53.540;10.224;2024-03-17T13:29:01;3.83;;;1.43;;
5491;SDS011;2768;53.540;10.224;2024-03-17T13:34:53;4.97;;;1.50;;
5491;SDS011;2768;53.540;10.224;2024-03-17T13:40:46;4.97;;;1.63;;
5491;SDS011;2768;53.540;10.224;2024-03-17T13:46:39;5.77;;;1.53;;
5491;SDS011;2768;53.540;10.224;2024-03-17T13:52:31;9.60;;;2.27;;
5491;SDS011;2768;53.540;10.224;2024-03-17T13:58:25;4.43;;;1.70;;
5491;SDS011;2768;53.540;10.224;2024-03-17T14:04:17;6.87;;;2.40;;
5491;SDS011;2768;53.540;10.224;2024-03-17T14:10:10;9.87;;;2.40;;
5491;SDS011;2768;53.540;10.224;2024-03-17T14:16:05;5.20;;;2.30;;
5491;SDS011;2768;53.540;10.224;2024-03-17T14:21:58;3.20;;;1.57;;
5491;SDS011;2768;53.540;10.224;2024-03-17T14:27:50;6.40;;;2.40;;
5491;SDS011;2768;53.540;10.224;2024-03-17T14:33:44;4.93;;;1.70;;
5491;SDS011;2768;53.540;10.224;2024-03-17T14:39:36;6.00;;;2.50;;
5491;SDS011;2768;53.540;10.224;2024-03-17T14:45:28;5.37;;;2.70;;
5491;SDS011;2768;53.540;10.224;2024-03-17T14:51:22;6.13;;;2.00;;
5491;SDS011;2768;53.540;10.224;2024-03-17T14:57:14;3.40;;;1.60;;
5491;SDS011;2768;53.540;10.224;2024-03-17T15:03:08;6.63;;;2.60;;
5491;SDS011;2768;53.540;10.224;2024-03-17T15:09:02;7.13;;;1.70;;
5491;SDS011;2768;53.540;10.224;2024-03-17T15:14:55;5.43;;;1.50;;
5491;SDS011;2768;53.540;10.224;2024-03-17T15:20:51;7.57;;;2.13;;
5491;SDS011;2768;53.540;10.224;2024-03-17T15:26:45;5.47;;;1.93;;
5491;SDS011;2768;53.540;10.224;2024-03-17T15:32:37;4.17;;;2.30;;
5491;SDS011;2768;53.540;10.224;2024-03-17T15:38:30;7.83;;;2.67;;
5491;SDS011;2768;53.540;10.224;2024-03-17T15:44:24;4.43;;;1.50;;
5491;SDS011;2768;53.540;10.224;2024-03-17T15:50:17;3.40;;;1.70;;
5491;SDS011;2768;53.540;10.224;2024-03-17T15:56:09;3.17;;;1.50;;
5491;SDS011;2768;53.540;10.224;2024-03-17T16:02:03;6.53;;;1.50;;
5491;SDS011;2768;53.540;10.224;2024-03-17T16:07:56;7.57;;;1.53;;
5491;SDS011;2768;53.540;10.224;2024-03-17T16:13:53;5.53;;;2.13;;
5491;SDS011;2768;53.540;10.224;2024-03-17T16:19:49;9.97;;;3.47;;
5491;SDS011;2768;53.540;10.224;2024-03-17T16:25:42;5.03;;;1.73;;
5491;SDS011;2768;53.540;10.224;2024-03-17T16:31:34;3.80;;;1.50;;
5491;SDS011;2768;53.540;10.224;2024-03-17T16:37:28;5.47;;;1.90;;
5491;SDS011;2768;53.540;10.224;2024-03-17T16:43:23;8.87;;;2.20;;
5491;SDS011;2768;53.540;10.224;2024-03-17T16:49:23;3.43;;;1.60;;
5491;SDS011;2768;53.540;10.224;2024-03-17T16:55:19;3.70;;;1.53;;
5491;SDS011;2768;53.540;10.224;2024-03-17T17:01:13;3.73;;;1.60;;
5491;SDS011;2768;53.540;10.224;2024-03-17T17:07:07;3.63;;;1.87;;
5491;SDS011;2768;53.540;10.224;2024-03-17T17:13:00;1.70;;;1.50;;
5491;SDS011;2768;53.540;10.224;2024-03-17T17:18:54;4.73;;;1.80;;
5491;SDS011;2768;53.540;10.224;2024-03-17T17:24:49;1.60;;;1.37;;
5491;SDS011;2768;53.540;10.224;2024-03-17T17:30:43;2.00;;;1.70;;
5491;SDS011;2768;53.540;10.224;2024-03-17T17:36:35;2.67;;;1.20;;
5491;SDS011;2768;53.540;10.224;2024-03-17T17:42:27;6.93;;;1.90;;
5491;SDS011;2768;53.540;10.224;2024-03-17T17:54:05;2.20;;;1.87;;
5491;SDS011;2768;53.540;10.224;2024-03-17T17:59:57;2.80;;;1.70;;
5491;SDS011;2768;53.540;10.224;2024-03-17T18:05:49;6.60;;;3.40;;
5491;SDS011;2768;53.540;10.224;2024-03-17T18:11:41;5.63;;;1.83;;
5491;SDS011;2768;53.540;10.224;2024-03-17T18:17:34;1.70;;;1.47;;
5491;SDS011;2768;53.540;10.224;2024-03-17T18:23:26;2.37;;;1.67;;
5491;SDS011;2768;53.540;10.224;2024-03-17T18:29:19;1.83;;;1.50;;
5491;SDS011;2768;53.540;10.224;2024-03-17T18:35:11;2.30;;;2.10;;
5491;SDS011;2768;53.540;10.224;2024-03-17T18:41:04;1.90;;;1.70;;
5491;SDS011;2768;53.540;10.224;2024-03-17T18:46:57;3.00;;;2.00;;
5491;SDS011;2768;53.540;10.224;2024-03-17T18:52:49;3.73;;;1.77;;
5491;SDS011;2768;53.540;10.224;2024-03-17T18:58:42;4.50;;;2.00;;
5491;SDS011;2768;53.540;10.224;2024-03-17T19:04:34;3.87;;;1.90;;
5491;SDS011;2768;53.540;10.224;2024-03-17T19:10:27;4.93;;;2.60;;
5491;SDS011;2768;53.540;10.224;2024-03-17T19:16:20;3.80;;;2.23;;
5491;SDS011;2768;53.540;10.224;2024-03-17T19:22:12;3.17;;;2.70;;
5491;SDS011;2768;53.540;10.224;2024-03-17T19:28:06;4.13;;;2.23;;
5491;SDS011;2768;53.540;10.224;2024-03-17T19:34:01;2.60;;;2.20;;
5491;SDS011;2768;53.540;10.224;2024-03-17T19:39:55;2.90;;;2.10;;
5491;SDS011;2768;53.540;10.224;2024-03-17T19:52:02;2.97;;;2.77;;
5491;SDS011;2768;53.540;10.224;2024-03-17T19:57:55;2.50;;;1.87;;
5491;SDS011;2768;53.540;10.224;2024-03-17T20:03:48;5.13;;;2.37;;
5491;SDS011;2768;53.540;10.224;2024-03-17T20:09:40;2.77;;;1.73;;
5491;SDS011;2768;53.540;10.224;2024-03-17T20:15:33;4.57;;;3.53;;
5491;SDS011;2768;53.540;10.224;2024-03-17T20:21:26;1.90;;;1.80;;
5491;SDS011;2768;53.540;10.224;2024-03-17T20:27:18;1.67;;;1.57;;
5491;SDS011;2768;53.540;10.224;2024-03-17T20:33:11;2.90;;;2.33;;
5491;SDS011;2768;53.540;10.224;2024-03-17T20:39:03;4.50;;;1.77;;
5491;SDS011;2768;53.540;10.224;2024-03-17T20:44:57;2.37;;;1.57;;
5491;SDS011;2768;53.540;10.224;2024-03-17T20:50:50;1.70;;;1.60;;
5491;SDS011;2768;53.540;10.224;2024-03-17T20:56:42;2.00;;;1.60;;
5491;SDS011;2768;53.540;10.224;2024-03-17T21:02:35;2.60;;;1.50;;
5491;SDS011;2768;53.540;10.224;2024-03-17T21:08:28;4.20;;;3.80;;
5491;SDS011;2768;53.540;10.224;2024-03-17T21:14:20;1.83;;;1.60;;
5491;SDS011;2768;53.540;10.224;2024-03-17T21:20:13;4.70;;;2.00;;
5491;SDS011;2768;53.540;10.224;2024-03-17T21:26:09;1.70;;;1.60;;
5491;SDS011;2768;53.540;10.224;2024-03-17T21:32:01;2.30;;;2.10;;
5491;SDS011;2768;53.540;10.224;2024-03-17T21:37:53;2.47;;;2.30;;
5491;SDS011;2768;53.540;10.224;2024-03-17T21:43:46;2.57;;;2.30;;
5491;SDS011;2768;53.540;10.224;2024-03-17T21:49:38;3.27;;;2.23;;
5491;SDS011;2768;53.540;10.224;2024-03-17T21:55:30;2.57;;;2.00;;
5491;SDS011;2768;53.540;10.224;2024-03-17T22:01:23;2.20;;;2.00;;
5491;SDS011;2768;53.540;10.224;2024-03-17T22:07:16;2.33;;;1.97;;
5491;SDS011;2768;53.540;10.224;2024-03-17T22:13:08;2.80;;;2.53;;
5491;SDS011;2768;53.540;10.224;2024-03-17T22:19:01;2.30;;;2.10;;
5491;SDS011;2768;53.540;10.224;2024-03-17T22:24:53;5.67;;;2.40;;
5491;SDS011;2768;53.540;10.224;2024-03-17T22:30:53;3.63;;;2.40;;
5491;SDS011;2768;53.540;10.224;2024-03-17T22:36:47;3.30;;;3.00;;
5491;SDS011;2768;53.540;10.224;2024-03-17T22:42:40;2.30;;;2.10;;
5491;SDS011;2768;53.540;10.224;2024-03-17T22:48:33;2.47;;;2.27;;
5491;SDS011;2768;53.540;10.224;2024-03-17T22:54:28;2.13;;;2.03;;
5491;SDS011;2768;53.540;10.224;2024-03-17T23:00:20;2.13;;;2.03;;
5491;SDS011;2768;53.540;10.224;2024-03-17T23:06:21;2.30;;;2.17;;
5491;SDS011;2768;53.540;10.224;2024-03-17T23:12:14;2.50;;;2.30;;
5491;SDS011;2768;53.540;10.224;2024-03-17T23:18:06;2.27;;;2.17;;
5491;SDS011;2768;53.540;10.224;2024-03-17T23:23:59;3.97;;;2.20;;
5491;SDS011;2768;53.540;10.224;2024-03-17T23:29:52;2.90;;;2.27;;
5491;SDS011;2768;53.540;10.224;2024-03-17T23:35:45;2.00;;;1.90;;
5491;SDS011;2768;53.540;10.224;2024-03-17T23:41:41;2.57;;;1.67;;
5491;SDS011;2768;53.540;10.224;2024-03-17T23:47:37;1.70;;;1.60;;
5491;SDS011;2768;53.540;10.224;2024-03-17T23:53:30;2.47;;;1.60;;
5491;SDS011;2768;53.540;10.224;2024-03-17T23:59:22;2.13;;;1.93;;
